sensor_id;sensor_type;location;lat;lon;timestamp;P1;durP1;ratioP1;P2;durP2;ratioP2
67092;SDS011;54011;50.772;7.730;2023-02-15T00:01:40;20.88;;;8.93;;
67092;SDS011;54011;50.772;7.730;2023-02-15T00:04:06;20.70;;;10.30;;
67092;SDS011;54011;50.772;7.730;2023-02-15T00:06:33;23.85;;;11.40;;
67092;SDS011;54011;50.772;7.730;2023-02-15T00:09:01;27.00;;;12.05;;
67092;SDS011;54011;50.772;7.730;2023-02-15T00:11:27;27.38;;;11.70;;
67092;SDS011;54011;50.772;7.730;2023-02-15T00:14:24;23.73;;;11.23;;
67092;SDS011;54011;50.772;7.730;2023-02-15T00:16:50;24.17;;;10.85;;
67092;SDS011;54011;50.772;7.730;2023-02-15T00:19:18;23.10;;;11.95;;
67092;SDS011;54011;50.772;7.730;2023-02-15T00:21:45;25.55;;;11.43;;
67092;SDS011;54011;50.772;7.730;2023-02-15T00:24:12;25.73;;;11.90;;
67092;SDS011;54011;50.772;7.730;2023-02-15T00:26:40;24.38;;;11.73;;
67092;SDS011;54011;50.772;7.730;2023-02-15T00:29:06;32.70;;;13.75;;
67092;SDS011;54011;50.772;7.730;2023-02-15T00:31:33;34.40;;;13.43;;
67092;SDS011;54011;50.772;7.730;2023-02-15T00:34:06;26.73;;;12.73;;
67092;SDS011;54011;50.772;7.730;2023-02-15T00:36:35;37.72;;;16.30;;
67092;SDS011;54011;50.772;7.730;2023-02-15T00:39:01;31.40;;;14.32;;
67092;SDS011;54011;50.772;7.730;2023-02-15T00:41:28;32.60;;;14.60;;
67092;SDS011;54011;50.772;7.730;2023-02-15T00:43:53;29.23;;;13.48;;
67092;SDS011;54011;50.772;7.730;2023-02-15T00:46:19;33.25;;;15.40;;
67092;SDS011;54011;50.772;7.730;2023-02-15T00:48:45;29.83;;;14.63;;
67092;SDS011;54011;50.772;7.730;2023-02-15T00:51:11;34.35;;;14.52;;
67092;SDS011;54011;50.772;7.730;2023-02-15T00:53:37;31.90;;;13.43;;
67092;SDS011;54011;50.772;7.730;2023-02-15T00:56:04;31.77;;;13.00;;
67092;SDS011;54011;50.772;7.730;2023-02-15T00:58:30;31.65;;;14.80;;
67092;SDS011;54011;50.772;7.730;2023-02-15T01:01:01;34.35;;;14.98;;
67092;SDS011;54011;50.772;7.730;2023-02-15T01:03:31;33.67;;;14.45;;
67092;SDS011;54011;50.772;7.730;2023-02-15T01:05:57;36.53;;;15.75;;
67092;SDS011;54011;50.772;7.730;2023-02-15T01:08:24;8.95;;;4.70;;
67092;SDS011;54011;50.772;7.730;2023-02-15T01:10:50;23.92;;;11.05;;
67092;SDS011;54011;50.772;7.730;2023-02-15T01:13:15;18.55;;;8.82;;
67092;SDS011;54011;50.772;7.730;2023-02-15T01:15:42;29.60;;;10.93;;
67092;SDS011;54011;50.772;7.730;2023-02-15T01:18:08;23.15;;;10.90;;
67092;SDS011;54011;50.772;7.730;2023-02-15T01:20:35;25.67;;;11.65;;
67092;SDS011;54011;50.772;7.730;2023-02-15T01:23:04;25.83;;;11.70;;
67092;SDS011;54011;50.772;7.730;2023-02-15T01:25:32;30.00;;;12.95;;
67092;SDS011;54011;50.772;7.730;2023-02-15T01:27:59;30.05;;;13.30;;
67092;SDS011;54011;50.772;7.730;2023-02-15T01:30:24;30.58;;;13.20;;
67092;SDS011;54011;50.772;7.730;2023-02-15T01:32:50;30.20;;;13.05;;
67092;SDS011;54011;50.772;7.730;2023-02-15T01:35:16;29.58;;;12.73;;
67092;SDS011;54011;50.772;7.730;2023-02-15T01:37:41;32.72;;;13.30;;
67092;SDS011;54011;50.772;7.730;2023-02-15T01:40:12;28.83;;;13.30;;
67092;SDS011;54011;50.772;7.730;2023-02-15T01:42:39;32.38;;;12.32;;
67092;SDS011;54011;50.772;7.730;2023-02-15T01:45:14;25.13;;;11.95;;
67092;SDS011;54011;50.772;7.730;2023-02-15T01:47:47;31.33;;;12.38;;
67092;SDS011;54011;50.772;7.730;2023-02-15T01:52:50;25.05;;;11.13;;
67092;SDS011;54011;50.772;7.730;2023-02-15T01:55:18;33.65;;;14.63;;
67092;SDS011;54011;50.772;7.730;2023-02-15T01:57:44;37.10;;;16.25;;
67092;SDS011;54011;50.772;7.730;2023-02-15T02:00:12;29.52;;;14.00;;
67092;SDS011;54011;50.772;7.730;2023-02-15T02:02:40;39.53;;;16.25;;
67092;SDS011;54011;50.772;7.730;2023-02-15T02:05:08;31.75;;;12.52;;
67092;SDS011;54011;50.772;7.730;2023-02-15T02:07:35;25.20;;;11.13;;
67092;SDS011;54011;50.772;7.730;2023-02-15T02:10:04;31.50;;;12.32;;
67092;SDS011;54011;50.772;7.730;2023-02-15T02:12:32;33.45;;;13.85;;
67092;SDS011;54011;50.772;7.730;2023-02-15T02:14:59;36.53;;;14.60;;
67092;SDS011;54011;50.772;7.730;2023-02-15T02:20:26;27.00;;;11.98;;
67092;SDS011;54011;50.772;7.730;2023-02-15T02:28:56;29.08;;;11.60;;
67092;SDS011;54011;50.772;7.730;2023-02-15T02:37:28;29.48;;;12.20;;
67092;SDS011;54011;50.772;7.730;2023-02-15T02:42:43;27.00;;;12.70;;
67092;SDS011;54011;50.772;7.730;2023-02-15T02:48:06;28.10;;;12.23;;
67092;SDS011;54011;50.772;7.730;2023-02-15T02:50:35;32.38;;;12.57;;
67092;SDS011;54011;50.772;7.730;2023-02-15T02:53:04;24.80;;;11.38;;
67092;SDS011;54011;50.772;7.730;2023-02-15T02:55:35;32.58;;;12.60;;
67092;SDS011;54011;50.772;7.730;2023-02-15T02:58:05;30.25;;;12.52;;
67092;SDS011;54011;50.772;7.730;2023-02-15T03:00:40;27.13;;;12.75;;
67092;SDS011;54011;50.772;7.730;2023-02-15T03:03:12;21.83;;;8.95;;
67092;SDS011;54011;50.772;7.730;2023-02-15T03:05:46;22.13;;;10.50;;
67092;SDS011;54011;50.772;7.730;2023-02-15T03:08:16;28.77;;;11.85;;
67092;SDS011;54011;50.772;7.730;2023-02-15T03:10:47;27.13;;;10.95;;
67092;SDS011;54011;50.772;7.730;2023-02-15T03:13:14;26.27;;;10.35;;
67092;SDS011;54011;50.772;7.730;2023-02-15T03:15:40;27.70;;;10.65;;
67092;SDS011;54011;50.772;7.730;2023-02-15T03:18:33;25.00;;;10.52;;
67092;SDS011;54011;50.772;7.730;2023-02-15T03:21:01;23.92;;;10.20;;
67092;SDS011;54011;50.772;7.730;2023-02-15T03:23:31;23.95;;;11.48;;
67092;SDS011;54011;50.772;7.730;2023-02-15T03:26:00;26.52;;;11.18;;
67092;SDS011;54011;50.772;7.730;2023-02-15T03:28:33;30.23;;;11.93;;
67092;SDS011;54011;50.772;7.730;2023-02-15T03:31:06;26.40;;;11.90;;
67092;SDS011;54011;50.772;7.730;2023-02-15T03:33:34;28.08;;;11.43;;
67092;SDS011;54011;50.772;7.730;2023-02-15T03:38:37;27.50;;;12.27;;
67092;SDS011;54011;50.772;7.730;2023-02-15T03:41:10;26.25;;;12.02;;
67092;SDS011;54011;50.772;7.730;2023-02-15T03:48:48;31.95;;;12.50;;
67092;SDS011;54011;50.772;7.730;2023-02-15T03:51:17;32.15;;;13.07;;
67092;SDS011;54011;50.772;7.730;2023-02-15T03:53:58;32.00;;;13.38;;
67092;SDS011;54011;50.772;7.730;2023-02-15T03:56:33;30.90;;;12.43;;
67092;SDS011;54011;50.772;7.730;2023-02-15T03:59:02;35.92;;;13.90;;
67092;SDS011;54011;50.772;7.730;2023-02-15T04:01:55;25.95;;;11.15;;
67092;SDS011;54011;50.772;7.730;2023-02-15T04:07:03;24.65;;;11.50;;
67092;SDS011;54011;50.772;7.730;2023-02-15T04:09:30;23.58;;;10.55;;
67092;SDS011;54011;50.772;7.730;2023-02-15T04:12:14;26.48;;;12.27;;
67092;SDS011;54011;50.772;7.730;2023-02-15T04:14:39;27.55;;;11.73;;
67092;SDS011;54011;50.772;7.730;2023-02-15T04:17:23;22.92;;;10.55;;
67092;SDS011;54011;50.772;7.730;2023-02-15T04:19:49;27.65;;;11.88;;
67092;SDS011;54011;50.772;7.730;2023-02-15T04:22:33;25.58;;;10.77;;
67092;SDS011;54011;50.772;7.730;2023-02-15T04:25:18;29.10;;;12.40;;
67092;SDS011;54011;50.772;7.730;2023-02-15T04:27:44;26.80;;;11.40;;
67092;SDS011;54011;50.772;7.730;2023-02-15T04:30:12;27.13;;;11.35;;
67092;SDS011;54011;50.772;7.730;2023-02-15T04:32:39;32.83;;;11.98;;
67092;SDS011;54011;50.772;7.730;2023-02-15T04:35:05;28.42;;;11.20;;
67092;SDS011;54011;50.772;7.730;2023-02-15T04:37:31;28.42;;;11.77;;
67092;SDS011;54011;50.772;7.730;2023-02-15T04:39:57;27.85;;;11.00;;
67092;SDS011;54011;50.772;7.730;2023-02-15T04:42:24;23.80;;;10.88;;
67092;SDS011;54011;50.772;7.730;2023-02-15T04:44:51;24.90;;;10.30;;
67092;SDS011;54011;50.772;7.730;2023-02-15T04:47:18;25.17;;;10.32;;
67092;SDS011;54011;50.772;7.730;2023-02-15T04:49:44;23.88;;;10.40;;
67092;SDS011;54011;50.772;7.730;2023-02-15T04:52:09;22.63;;;10.32;;
67092;SDS011;54011;50.772;7.730;2023-02-15T04:54:35;22.73;;;9.70;;
67092;SDS011;54011;50.772;7.730;2023-02-15T04:57:02;22.42;;;10.32;;
67092;SDS011;54011;50.772;7.730;2023-02-15T04:59:27;27.15;;;11.60;;
67092;SDS011;54011;50.772;7.730;2023-02-15T05:01:54;21.50;;;9.45;;
67092;SDS011;54011;50.772;7.730;2023-02-15T05:04:19;27.92;;;12.02;;
67092;SDS011;54011;50.772;7.730;2023-02-15T05:06:46;26.13;;;11.75;;
67092;SDS011;54011;50.772;7.730;2023-02-15T05:09:11;22.65;;;10.15;;
67092;SDS011;54011;50.772;7.730;2023-02-15T05:11:37;24.92;;;10.70;;
67092;SDS011;54011;50.772;7.730;2023-02-15T05:14:03;28.65;;;12.20;;
67092;SDS011;54011;50.772;7.730;2023-02-15T05:16:29;22.50;;;10.40;;
67092;SDS011;54011;50.772;7.730;2023-02-15T05:18:56;24.90;;;10.93;;
67092;SDS011;54011;50.772;7.730;2023-02-15T05:21:21;24.38;;;10.50;;
67092;SDS011;54011;50.772;7.730;2023-02-15T05:23:47;23.98;;;10.32;;
67092;SDS011;54011;50.772;7.730;2023-02-15T05:26:15;26.25;;;10.70;;
67092;SDS011;54011;50.772;7.730;2023-02-15T05:29:01;19.92;;;8.98;;
67092;SDS011;54011;50.772;7.730;2023-02-15T05:31:27;24.88;;;10.30;;
67092;SDS011;54011;50.772;7.730;2023-02-15T05:33:53;25.27;;;10.00;;
67092;SDS011;54011;50.772;7.730;2023-02-15T05:36:19;19.65;;;9.02;;
67092;SDS011;54011;50.772;7.730;2023-02-15T05:38:44;25.20;;;9.90;;
67092;SDS011;54011;50.772;7.730;2023-02-15T05:41:10;27.95;;;11.05;;
67092;SDS011;54011;50.772;7.730;2023-02-15T05:43:36;18.15;;;7.93;;
67092;SDS011;54011;50.772;7.730;2023-02-15T05:46:03;22.05;;;10.10;;
67092;SDS011;54011;50.772;7.730;2023-02-15T05:48:29;24.13;;;10.52;;
67092;SDS011;54011;50.772;7.730;2023-02-15T05:51:02;26.88;;;11.05;;
67092;SDS011;54011;50.772;7.730;2023-02-15T05:53:30;24.45;;;10.60;;
67092;SDS011;54011;50.772;7.730;2023-02-15T05:55:56;25.67;;;11.30;;
67092;SDS011;54011;50.772;7.730;2023-02-15T05:58:26;28.25;;;11.90;;
67092;SDS011;54011;50.772;7.730;2023-02-15T06:00:52;24.88;;;11.82;;
67092;SDS011;54011;50.772;7.730;2023-02-15T06:03:18;26.67;;;12.38;;
67092;SDS011;54011;50.772;7.730;2023-02-15T06:05:44;25.23;;;11.13;;
67092;SDS011;54011;50.772;7.730;2023-02-15T06:08:10;24.02;;;10.02;;
67092;SDS011;54011;50.772;7.730;2023-02-15T06:10:35;30.73;;;13.13;;
67092;SDS011;54011;50.772;7.730;2023-02-15T06:13:01;27.17;;;12.15;;
67092;SDS011;54011;50.772;7.730;2023-02-15T06:15:26;25.27;;;11.48;;
67092;SDS011;54011;50.772;7.730;2023-02-15T06:17:52;23.77;;;11.13;;
67092;SDS011;54011;50.772;7.730;2023-02-15T06:20:17;21.02;;;10.18;;
67092;SDS011;54011;50.772;7.730;2023-02-15T06:22:44;24.58;;;10.48;;
67092;SDS011;54011;50.772;7.730;2023-02-15T06:25:09;21.55;;;10.00;;
67092;SDS011;54011;50.772;7.730;2023-02-15T06:27:36;27.52;;;10.55;;
67092;SDS011;54011;50.772;7.730;2023-02-15T06:30:03;24.70;;;9.95;;
67092;SDS011;54011;50.772;7.730;2023-02-15T06:32:31;24.08;;;10.50;;
67092;SDS011;54011;50.772;7.730;2023-02-15T06:34:56;21.45;;;9.07;;
67092;SDS011;54011;50.772;7.730;2023-02-15T06:37:22;25.80;;;9.90;;
67092;SDS011;54011;50.772;7.730;2023-02-15T06:39:47;22.88;;;9.23;;
67092;SDS011;54011;50.772;7.730;2023-02-15T06:42:13;14.10;;;6.43;;
67092;SDS011;54011;50.772;7.730;2023-02-15T06:44:40;23.05;;;10.18;;
67092;SDS011;54011;50.772;7.730;2023-02-15T06:47:05;28.58;;;10.60;;
67092;SDS011;54011;50.772;7.730;2023-02-15T06:49:30;31.92;;;10.98;;
67092;SDS011;54011;50.772;7.730;2023-02-15T06:51:56;25.73;;;10.52;;
67092;SDS011;54011;50.772;7.730;2023-02-15T06:54:21;25.67;;;10.32;;
67092;SDS011;54011;50.772;7.730;2023-02-15T06:56:47;22.70;;;9.07;;
67092;SDS011;54011;50.772;7.730;2023-02-15T06:59:12;24.85;;;11.02;;
67092;SDS011;54011;50.772;7.730;2023-02-15T07:01:38;25.63;;;10.98;;
67092;SDS011;54011;50.772;7.730;2023-02-15T07:04:03;28.42;;;11.13;;
67092;SDS011;54011;50.772;7.730;2023-02-15T07:06:32;25.98;;;10.45;;
67092;SDS011;54011;50.772;7.730;2023-02-15T07:08:58;41.88;;;20.38;;
67092;SDS011;54011;50.772;7.730;2023-02-15T07:11:24;22.00;;;11.07;;
67092;SDS011;54011;50.772;7.730;2023-02-15T07:14:08;27.05;;;10.30;;
67092;SDS011;54011;50.772;7.730;2023-02-15T07:16:33;26.55;;;10.75;;
67092;SDS011;54011;50.772;7.730;2023-02-15T07:18:59;26.13;;;11.32;;
67092;SDS011;54011;50.772;7.730;2023-02-15T07:21:24;28.05;;;11.73;;
67092;SDS011;54011;50.772;7.730;2023-02-15T07:23:49;22.38;;;9.63;;
67092;SDS011;54011;50.772;7.730;2023-02-15T07:26:15;22.92;;;9.10;;
67092;SDS011;54011;50.772;7.730;2023-02-15T07:28:41;25.83;;;10.75;;
67092;SDS011;54011;50.772;7.730;2023-02-15T07:31:06;24.55;;;9.73;;
67092;SDS011;54011;50.772;7.730;2023-02-15T07:33:32;21.92;;;9.95;;
67092;SDS011;54011;50.772;7.730;2023-02-15T07:35:58;24.58;;;10.38;;
67092;SDS011;54011;50.772;7.730;2023-02-15T07:38:26;25.40;;;11.18;;
67092;SDS011;54011;50.772;7.730;2023-02-15T07:41:03;26.45;;;10.98;;
67092;SDS011;54011;50.772;7.730;2023-02-15T07:43:44;22.45;;;11.05;;
67092;SDS011;54011;50.772;7.730;2023-02-15T07:46:12;29.88;;;11.65;;
67092;SDS011;54011;50.772;7.730;2023-02-15T07:48:41;28.75;;;11.48;;
67092;SDS011;54011;50.772;7.730;2023-02-15T07:51:08;26.08;;;12.35;;
67092;SDS011;54011;50.772;7.730;2023-02-15T07:53:34;23.73;;;11.45;;
67092;SDS011;54011;50.772;7.730;2023-02-15T07:56:01;28.52;;;12.30;;
67092;SDS011;54011;50.772;7.730;2023-02-15T07:58:28;26.83;;;11.32;;
67092;SDS011;54011;50.772;7.730;2023-02-15T08:01:13;23.98;;;10.45;;
67092;SDS011;54011;50.772;7.730;2023-02-15T08:03:39;25.48;;;11.95;;
67092;SDS011;54011;50.772;7.730;2023-02-15T08:06:04;37.72;;;12.68;;
67092;SDS011;54011;50.772;7.730;2023-02-15T08:08:30;29.40;;;12.43;;
67092;SDS011;54011;50.772;7.730;2023-02-15T08:11:00;29.73;;;12.63;;
67092;SDS011;54011;50.772;7.730;2023-02-15T08:13:49;29.10;;;13.05;;
67092;SDS011;54011;50.772;7.730;2023-02-15T08:16:28;32.20;;;13.07;;
67092;SDS011;54011;50.772;7.730;2023-02-15T08:19:08;26.73;;;11.23;;
67092;SDS011;54011;50.772;7.730;2023-02-15T08:21:42;25.48;;;11.35;;
67092;SDS011;54011;50.772;7.730;2023-02-15T08:24:12;22.92;;;10.38;;
67092;SDS011;54011;50.772;7.730;2023-02-15T08:26:39;22.52;;;10.40;;
67092;SDS011;54011;50.772;7.730;2023-02-15T08:29:05;27.10;;;11.68;;
67092;SDS011;54011;50.772;7.730;2023-02-15T08:31:32;27.67;;;11.77;;
67092;SDS011;54011;50.772;7.730;2023-02-15T08:33:58;28.52;;;11.63;;
67092;SDS011;54011;50.772;7.730;2023-02-15T08:36:24;23.48;;;10.25;;
67092;SDS011;54011;50.772;7.730;2023-02-15T08:38:54;27.83;;;11.55;;
67092;SDS011;54011;50.772;7.730;2023-02-15T08:41:24;25.55;;;11.48;;
67092;SDS011;54011;50.772;7.730;2023-02-15T08:43:52;33.47;;;12.88;;
67092;SDS011;54011;50.772;7.730;2023-02-15T08:46:20;26.23;;;12.30;;
67092;SDS011;54011;50.772;7.730;2023-02-15T08:48:47;25.45;;;11.60;;
67092;SDS011;54011;50.772;7.730;2023-02-15T08:51:24;23.50;;;11.40;;
67092;SDS011;54011;50.772;7.730;2023-02-15T08:53:54;22.85;;;11.30;;
67092;SDS011;54011;50.772;7.730;2023-02-15T08:56:22;24.77;;;11.00;;
67092;SDS011;54011;50.772;7.730;2023-02-15T08:58:50;20.10;;;9.77;;
67092;SDS011;54011;50.772;7.730;2023-02-15T09:01:19;22.45;;;10.63;;
67092;SDS011;54011;50.772;7.730;2023-02-15T09:03:47;22.15;;;10.55;;
67092;SDS011;54011;50.772;7.730;2023-02-15T09:06:18;17.27;;;8.30;;
67092;SDS011;54011;50.772;7.730;2023-02-15T09:08:44;22.75;;;10.38;;
67092;SDS011;54011;50.772;7.730;2023-02-15T09:11:12;19.75;;;10.60;;
67092;SDS011;54011;50.772;7.730;2023-02-15T09:13:47;20.60;;;10.05;;
67092;SDS011;54011;50.772;7.730;2023-02-15T09:16:13;17.10;;;9.13;;
67092;SDS011;54011;50.772;7.730;2023-02-15T09:18:41;17.73;;;9.68;;
67092;SDS011;54011;50.772;7.730;2023-02-15T09:21:08;18.52;;;9.00;;
67092;SDS011;54011;50.772;7.730;2023-02-15T09:23:41;20.83;;;9.88;;
67092;SDS011;54011;50.772;7.730;2023-02-15T09:26:11;17.60;;;9.50;;
67092;SDS011;54011;50.772;7.730;2023-02-15T09:28:38;20.55;;;10.80;;
67092;SDS011;54011;50.772;7.730;2023-02-15T09:31:08;20.65;;;9.68;;
67092;SDS011;54011;50.772;7.730;2023-02-15T09:33:35;18.75;;;9.00;;
67092;SDS011;54011;50.772;7.730;2023-02-15T09:36:02;20.52;;;9.68;;
67092;SDS011;54011;50.772;7.730;2023-02-15T09:38:29;19.08;;;9.27;;
67092;SDS011;54011;50.772;7.730;2023-02-15T09:44:10;17.35;;;8.25;;
67092;SDS011;54011;50.772;7.730;2023-02-15T09:46:55;15.63;;;7.93;;
67092;SDS011;54011;50.772;7.730;2023-02-15T09:52:53;15.40;;;7.93;;
67092;SDS011;54011;50.772;7.730;2023-02-15T09:58:15;19.05;;;8.38;;
67092;SDS011;54011;50.772;7.730;2023-02-15T10:08:52;11.40;;;5.78;;
67092;SDS011;54011;50.772;7.730;2023-02-15T10:14:32;12.13;;;4.70;;
67092;SDS011;54011;50.772;7.730;2023-02-15T10:17:38;11.77;;;5.03;;
67092;SDS011;54011;50.772;7.730;2023-02-15T10:20:23;9.20;;;4.38;;
67092;SDS011;54011;50.772;7.730;2023-02-15T10:23:05;9.05;;;3.95;;
67092;SDS011;54011;50.772;7.730;2023-02-15T10:25:46;8.65;;;4.28;;
67092;SDS011;54011;50.772;7.730;2023-02-15T10:28:23;11.63;;;5.57;;
67092;SDS011;54011;50.772;7.730;2023-02-15T10:30:56;12.65;;;6.18;;
67092;SDS011;54011;50.772;7.730;2023-02-15T10:33:47;11.80;;;5.63;;
67092;SDS011;54011;50.772;7.730;2023-02-15T10:39:12;10.50;;;5.63;;
67092;SDS011;54011;50.772;7.730;2023-02-15T10:42:03;10.68;;;5.47;;
67092;SDS011;54011;50.772;7.730;2023-02-15T10:56:18;8.82;;;4.40;;
67092;SDS011;54011;50.772;7.730;2023-02-15T10:58:51;6.55;;;2.97;;
67092;SDS011;54011;50.772;7.730;2023-02-15T11:01:43;12.57;;;5.72;;
67092;SDS011;54011;50.772;7.730;2023-02-15T11:07:22;15.45;;;6.40;;
67092;SDS011;54011;50.772;7.730;2023-02-15T11:09:51;11.20;;;6.13;;
67092;SDS011;54011;50.772;7.730;2023-02-15T11:12:41;11.85;;;6.20;;
67092;SDS011;54011;50.772;7.730;2023-02-15T11:17:56;11.75;;;6.30;;
67092;SDS011;54011;50.772;7.730;2023-02-15T11:20:32;11.18;;;5.78;;
67092;SDS011;54011;50.772;7.730;2023-02-15T11:23:06;12.70;;;6.13;;
67092;SDS011;54011;50.772;7.730;2023-02-15T11:25:40;12.00;;;6.72;;
67092;SDS011;54011;50.772;7.730;2023-02-15T11:28:11;8.20;;;4.05;;
67092;SDS011;54011;50.772;7.730;2023-02-15T11:30:45;13.13;;;6.68;;
67092;SDS011;54011;50.772;7.730;2023-02-15T11:33:21;13.55;;;6.80;;
67092;SDS011;54011;50.772;7.730;2023-02-15T11:35:52;11.80;;;5.78;;
67092;SDS011;54011;50.772;7.730;2023-02-15T11:38:23;14.27;;;6.55;;
67092;SDS011;54011;50.772;7.730;2023-02-15T11:46:05;12.25;;;6.65;;
67092;SDS011;54011;50.772;7.730;2023-02-15T11:48:33;15.73;;;6.75;;
67092;SDS011;54011;50.772;7.730;2023-02-15T11:50:59;13.95;;;6.97;;
67092;SDS011;54011;50.772;7.730;2023-02-15T11:53:28;13.40;;;6.45;;
67092;SDS011;54011;50.772;7.730;2023-02-15T11:55:58;12.02;;;6.57;;
67092;SDS011;54011;50.772;7.730;2023-02-15T12:01:11;12.20;;;6.63;;
67092;SDS011;54011;50.772;7.730;2023-02-15T12:06:26;13.32;;;6.88;;
67092;SDS011;54011;50.772;7.730;2023-02-15T12:08:56;14.02;;;7.57;;
67092;SDS011;54011;50.772;7.730;2023-02-15T12:11:31;13.30;;;7.03;;
67092;SDS011;54011;50.772;7.730;2023-02-15T12:14:03;10.23;;;5.75;;
67092;SDS011;54011;50.772;7.730;2023-02-15T12:16:32;8.07;;;3.30;;
67092;SDS011;54011;50.772;7.730;2023-02-15T12:19:10;13.55;;;7.47;;
67092;SDS011;54011;50.772;7.730;2023-02-15T12:21:58;13.50;;;6.50;;
67092;SDS011;54011;50.772;7.730;2023-02-15T12:24:32;13.90;;;6.95;;
67092;SDS011;54011;50.772;7.730;2023-02-15T12:27:03;11.90;;;6.68;;
67092;SDS011;54011;50.772;7.730;2023-02-15T12:29:35;13.95;;;7.45;;
67092;SDS011;54011;50.772;7.730;2023-02-15T12:32:08;11.95;;;7.00;;
67092;SDS011;54011;50.772;7.730;2023-02-15T12:34:41;11.43;;;6.72;;
67092;SDS011;54011;50.772;7.730;2023-02-15T12:37:16;17.55;;;6.95;;
67092;SDS011;54011;50.772;7.730;2023-02-15T12:39:56;6.50;;;3.47;;
67092;SDS011;54011;50.772;7.730;2023-02-15T12:42:26;12.63;;;6.53;;
67092;SDS011;54011;50.772;7.730;2023-02-15T12:44:55;15.77;;;7.60;;
67092;SDS011;54011;50.772;7.730;2023-02-15T12:47:26;13.35;;;6.88;;
67092;SDS011;54011;50.772;7.730;2023-02-15T12:50:12;15.63;;;7.10;;
67092;SDS011;54011;50.772;7.730;2023-02-15T12:52:48;14.30;;;7.30;;
67092;SDS011;54011;50.772;7.730;2023-02-15T12:55:20;12.85;;;6.47;;
67092;SDS011;54011;50.772;7.730;2023-02-15T12:57:46;13.95;;;8.02;;
67092;SDS011;54011;50.772;7.730;2023-02-15T13:02:51;14.23;;;7.53;;
67092;SDS011;54011;50.772;7.730;2023-02-15T13:08:12;13.13;;;7.50;;
67092;SDS011;54011;50.772;7.730;2023-02-15T13:13:25;14.10;;;7.45;;
67092;SDS011;54011;50.772;7.730;2023-02-15T13:15:55;12.88;;;7.80;;
67092;SDS011;54011;50.772;7.730;2023-02-15T13:18:43;14.00;;;8.32;;
67092;SDS011;54011;50.772;7.730;2023-02-15T13:21:18;15.27;;;7.15;;
67092;SDS011;54011;50.772;7.730;2023-02-15T13:23:48;14.40;;;8.05;;
67092;SDS011;54011;50.772;7.730;2023-02-15T13:26:21;12.30;;;6.18;;
67092;SDS011;54011;50.772;7.730;2023-02-15T13:28:49;16.73;;;8.10;;
67092;SDS011;54011;50.772;7.730;2023-02-15T13:31:19;15.57;;;8.23;;
67092;SDS011;54011;50.772;7.730;2023-02-15T13:33:52;14.48;;;7.72;;
67092;SDS011;54011;50.772;7.730;2023-02-15T13:36:23;15.80;;;8.63;;
67092;SDS011;54011;50.772;7.730;2023-02-15T13:42:17;17.23;;;8.50;;
67092;SDS011;54011;50.772;7.730;2023-02-15T13:44:54;15.55;;;8.65;;
67092;SDS011;54011;50.772;7.730;2023-02-15T14:04:31;17.63;;;9.05;;
67092;SDS011;54011;50.772;7.730;2023-02-15T14:15:32;18.88;;;8.82;;
67092;SDS011;54011;50.772;7.730;2023-02-15T14:18:25;15.80;;;9.25;;
67092;SDS011;54011;50.772;7.730;2023-02-15T14:21:17;19.67;;;9.95;;
67092;SDS011;54011;50.772;7.730;2023-02-15T14:23:53;16.20;;;8.57;;
67092;SDS011;54011;50.772;7.730;2023-02-15T14:29:44;16.58;;;8.98;;
67092;SDS011;54011;50.772;7.730;2023-02-15T14:32:20;16.17;;;9.18;;
67092;SDS011;54011;50.772;7.730;2023-02-15T14:34:57;16.70;;;9.20;;
67092;SDS011;54011;50.772;7.730;2023-02-15T14:37:45;15.98;;;9.23;;
67092;SDS011;54011;50.772;7.730;2023-02-15T14:40:32;19.55;;;9.43;;
67092;SDS011;54011;50.772;7.730;2023-02-15T14:45:55;17.27;;;10.70;;
67092;SDS011;54011;50.772;7.730;2023-02-15T14:50:58;15.07;;;8.98;;
67092;SDS011;54011;50.772;7.730;2023-02-15T14:56:05;18.38;;;9.65;;
67092;SDS011;54011;50.772;7.730;2023-02-15T15:01:32;16.00;;;9.75;;
67092;SDS011;54011;50.772;7.730;2023-02-15T15:04:04;16.05;;;8.95;;
67092;SDS011;54011;50.772;7.730;2023-02-15T15:06:34;17.83;;;9.20;;
67092;SDS011;54011;50.772;7.730;2023-02-15T15:09:19;15.68;;;8.05;;
67092;SDS011;54011;50.772;7.730;2023-02-15T15:11:52;18.02;;;10.18;;
67092;SDS011;54011;50.772;7.730;2023-02-15T15:16:56;18.92;;;9.70;;
67092;SDS011;54011;50.772;7.730;2023-02-15T15:22:44;18.00;;;9.73;;
67092;SDS011;54011;50.772;7.730;2023-02-15T15:25:10;16.45;;;9.02;;
67092;SDS011;54011;50.772;7.730;2023-02-15T15:27:56;17.63;;;9.45;;
67092;SDS011;54011;50.772;7.730;2023-02-15T15:49:30;17.23;;;9.55;;
67092;SDS011;54011;50.772;7.730;2023-02-15T15:52:01;19.95;;;10.48;;
67092;SDS011;54011;50.772;7.730;2023-02-15T15:54:28;22.50;;;11.05;;
67092;SDS011;54011;50.772;7.730;2023-02-15T15:56:56;20.15;;;9.80;;
67092;SDS011;54011;50.772;7.730;2023-02-15T15:59:31;17.25;;;9.38;;
67092;SDS011;54011;50.772;7.730;2023-02-15T16:02:07;21.42;;;10.18;;
67092;SDS011;54011;50.772;7.730;2023-02-15T16:04:41;21.52;;;11.13;;
67092;SDS011;54011;50.772;7.730;2023-02-15T16:07:13;20.33;;;10.15;;
67092;SDS011;54011;50.772;7.730;2023-02-15T16:12:20;19.77;;;10.50;;
67092;SDS011;54011;50.772;7.730;2023-02-15T16:14:46;20.27;;;10.35;;
67092;SDS011;54011;50.772;7.730;2023-02-15T16:17:22;20.85;;;10.57;;
67092;SDS011;54011;50.772;7.730;2023-02-15T16:19:49;20.42;;;10.70;;
67092;SDS011;54011;50.772;7.730;2023-02-15T16:22:21;20.55;;;10.02;;
67092;SDS011;54011;50.772;7.730;2023-02-15T16:24:54;20.48;;;9.48;;
67092;SDS011;54011;50.772;7.730;2023-02-15T16:33:11;19.67;;;9.30;;
67092;SDS011;54011;50.772;7.730;2023-02-15T16:35:57;17.60;;;9.60;;
67092;SDS011;54011;50.772;7.730;2023-02-15T16:38:49;19.42;;;9.70;;
67092;SDS011;54011;50.772;7.730;2023-02-15T16:41:32;22.23;;;10.50;;
67092;SDS011;54011;50.772;7.730;2023-02-15T16:44:00;19.65;;;10.45;;
67092;SDS011;54011;50.772;7.730;2023-02-15T16:46:32;21.00;;;10.95;;
67092;SDS011;54011;50.772;7.730;2023-02-15T16:49:02;21.10;;;10.88;;
67092;SDS011;54011;50.772;7.730;2023-02-15T16:51:31;18.85;;;9.73;;
67092;SDS011;54011;50.772;7.730;2023-02-15T16:54:05;23.33;;;10.68;;
67092;SDS011;54011;50.772;7.730;2023-02-15T16:56:33;21.08;;;11.00;;
67092;SDS011;54011;50.772;7.730;2023-02-15T16:58:59;21.92;;;11.05;;
67092;SDS011;54011;50.772;7.730;2023-02-15T17:01:26;21.52;;;11.23;;
67092;SDS011;54011;50.772;7.730;2023-02-15T17:04:13;21.83;;;10.32;;
67092;SDS011;54011;50.772;7.730;2023-02-15T17:09:28;24.67;;;11.05;;
67092;SDS011;54011;50.772;7.730;2023-02-15T17:11:54;21.08;;;10.60;;
67092;SDS011;54011;50.772;7.730;2023-02-15T17:14:30;22.65;;;10.15;;
67092;SDS011;54011;50.772;7.730;2023-02-15T17:17:01;24.23;;;12.77;;
67092;SDS011;54011;50.772;7.730;2023-02-15T17:19:44;23.50;;;11.52;;
67092;SDS011;54011;50.772;7.730;2023-02-15T17:22:21;24.30;;;10.80;;
67092;SDS011;54011;50.772;7.730;2023-02-15T17:24:49;20.48;;;11.27;;
67092;SDS011;54011;50.772;7.730;2023-02-15T17:27:25;20.13;;;10.75;;
67092;SDS011;54011;50.772;7.730;2023-02-15T17:30:00;23.38;;;10.90;;
67092;SDS011;54011;50.772;7.730;2023-02-15T17:32:30;32.78;;;15.95;;
67092;SDS011;54011;50.772;7.730;2023-02-15T17:35:05;24.90;;;12.23;;
67092;SDS011;54011;50.772;7.730;2023-02-15T17:37:46;22.80;;;11.45;;
67092;SDS011;54011;50.772;7.730;2023-02-15T17:40:23;23.08;;;12.00;;